Time;durP1;ratioP1;P1;durP2;ratioP2;P2;SDS_P1;SDS_P2;PMS_P1;PMS_P2;Temp;Humidity;BMP_temperature;BMP_pressure;BME280_temperature;BME280_humidity;BME280_pressure;Samples;Min_cycle;Max_cycle;Signal;HPM_P1;HPM_P2
2021/05/11 00:00:32;;;;;;;3.10;1.70;;;14.50;99.90;;;;;;4806181;29;20798;-77
2021/05/11 00:02:59;;;;;;;1.40;1.20;;;14.50;99.90;;;;;;4806170;29;20431;-78
2021/05/11 00:05:28;;;;;;;2.17;1.67;;;14.40;99.90;;;;;;4809288;29;20680;-79
2021/05/11 00:07:54;;;;;;;1.60;1.10;;;14.40;99.90;;;;;;4809793;29;20398;-80
2021/05/11 00:10:20;;;;;;;3.57;1.63;;;14.30;99.90;;;;;;4809775;29;20459;-80
2021/05/11 00:12:45;;;;;;;3.03;2.00;;;14.30;99.90;;;;;;4809659;29;20446;-80
2021/05/11 00:15:12;;;;;;;1.83;1.20;;;14.30;99.90;;;;;;4809238;29;20530;-81
2021/05/11 00:17:39;;;;;;;2.17;1.43;;;14.30;99.90;;;;;;4809520;29;20194;-80
2021/05/11 00:20:06;;;;;;;4.17;2.63;;;14.20;99.90;;;;;;4809372;29;20767;-81
2021/05/11 00:22:31;;;;;;;1.63;1.40;;;14.10;99.90;;;;;;4809368;29;20406;-81
2021/05/11 00:24:57;;;;;;;3.10;1.60;;;14.00;99.90;;;;;;4809051;29;20454;-79
2021/05/11 00:27:22;;;;;;;5.73;1.90;;;14.00;99.90;;;;;;4809433;29;20186;-80
2021/05/11 00:29:48;;;;;;;4.43;1.70;;;14.00;99.90;;;;;;4809265;29;20214;-80
2021/05/11 00:32:14;;;;;;;2.50;1.83;;;14.00;99.90;;;;;;4809116;29;20218;-80
2021/05/11 00:34:39;;;;;;;2.47;1.67;;;14.00;99.90;;;;;;4809000;29;20248;-80
2021/05/11 00:37:05;;;;;;;3.03;2.10;;;13.90;99.90;;;;;;4809270;29;20656;-80
2021/05/11 00:39:30;;;;;;;3.43;2.30;;;13.90;99.90;;;;;;4809186;29;20186;-80
2021/05/11 00:41:56;;;;;;;2.90;2.57;;;13.90;99.90;;;;;;4807851;29;20272;-80
2021/05/11 00:44:24;;;;;;;2.90;2.03;;;13.80;99.90;;;;;;4808532;29;20217;-80
2021/05/11 00:46:59;;;;;;;2.57;2.37;;;13.80;99.90;;;;;;4808958;29;20721;-81
2021/05/11 00:49:25;;;;;;;2.53;2.33;;;13.90;99.90;;;;;;4809114;29;20443;-81
2021/05/11 00:51:51;;;;;;;2.33;2.13;;;13.80;99.90;;;;;;4838230;29;20864;-81
2021/05/11 00:54:17;;;;;;;3.80;2.60;;;13.80;99.90;;;;;;4808654;29;20423;-82
2021/05/11 00:56:45;;;;;;;2.43;2.23;;;13.80;99.90;;;;;;4809037;29;20472;-83
2021/05/11 00:59:18;;;;;;;3.13;2.63;;;13.80;99.90;;;;;;4808931;29;20803;-82
2021/05/11 01:01:44;;;;;;;4.50;3.30;;;13.80;99.90;;;;;;4807665;29;20406;-83
2021/05/11 01:04:09;;;;;;;3.23;2.70;;;13.80;99.90;;;;;;4808449;29;20406;-83
2021/05/11 01:06:35;;;;;;;3.10;2.80;;;13.80;99.90;;;;;;4808626;29;20418;-83
2021/05/11 01:09:01;;;;;;;4.73;3.30;;;13.70;99.90;;;;;;4837934;29;20201;-84
2021/05/11 01:11:27;;;;;;;3.80;2.93;;;13.70;99.90;;;;;;4808519;29;20210;-84
2021/05/11 01:13:52;;;;;;;3.53;3.00;;;13.70;99.90;;;;;;4808757;29;20190;-83
2021/05/11 01:16:18;;;;;;;4.67;3.27;;;13.70;99.90;;;;;;4807598;29;20414;-82
2021/05/11 01:18:46;;;;;;;3.40;3.10;;;13.70;99.90;;;;;;4808559;29;20644;-84
2021/05/11 01:21:31;;;;;;;3.60;3.30;;;13.70;99.90;;;;;;4808611;29;20273;-83
2021/05/11 01:26:55;;;;;;;4.00;3.23;;;13.70;99.90;;;;;;4833472;29;20411;-84
2021/05/11 01:47:52;;;;;;;4.40;3.50;;;13.70;99.90;;;;;;4808325;29;20475;-83
2021/05/11 01:56:01;;;;;;;5.80;3.80;;;13.60;99.90;;;;;;4807960;29;20953;-83
2021/05/11 02:23:16;;;;;;;5.53;3.87;;;13.40;99.90;;;;;;4807589;29;20423;-81
2021/05/11 02:25:41;;;;;;;6.10;4.10;;;13.40;99.90;;;;;;4805667;29;20459;-82
2021/05/11 02:28:07;;;;;;;4.33;3.67;;;13.50;99.90;;;;;;4807298;29;20554;-81
2021/05/11 02:30:32;;;;;;;6.10;3.90;;;13.50;99.90;;;;;;4807204;29;20251;-81
2021/05/11 02:32:58;;;;;;;6.20;4.80;;;13.40;99.90;;;;;;4807077;29;20245;-81
2021/05/11 02:35:24;;;;;;;5.50;4.20;;;13.50;99.90;;;;;;4835725;29;20687;-81
2021/05/11 02:37:50;;;;;;;5.00;4.50;;;13.50;99.90;;;;;;4836170;29;20562;-81
2021/05/11 02:40:20;;;;;;;6.83;4.60;;;13.50;99.90;;;;;;4807079;29;20511;-81
2021/05/11 02:42:47;;;;;;;4.83;3.93;;;13.40;99.90;;;;;;4807011;29;20573;-80
2021/05/11 02:45:15;;;;;;;6.93;3.83;;;13.40;99.90;;;;;;4806419;29;20553;-80
2021/05/11 02:47:49;;;;;;;4.70;4.17;;;13.50;99.90;;;;;;4806939;29;20424;-80
2021/05/11 02:50:20;;;;;;;4.70;3.97;;;13.50;99.90;;;;;;4805761;29;20431;-79
2021/05/11 02:52:46;;;;;;;4.90;4.37;;;13.50;99.90;;;;;;4806896;29;20999;-80
2021/05/11 02:55:13;;;;;;;10.93;5.30;;;13.50;99.90;;;;;;4806395;29;20475;-79
2021/05/11 02:57:39;;;;;;;4.73;4.10;;;13.50;99.90;;;;;;4806830;29;20444;-79
2021/05/11 03:00:07;;;;;;;11.87;5.77;;;13.50;99.90;;;;;;4805657;29;20399;-80
2021/05/11 03:02:33;;;;;;;6.93;4.57;;;13.50;99.90;;;;;;4806756;29;20217;-80
2021/05/11 03:04:59;;;;;;;5.43;4.53;;;13.50;99.90;;;;;;4806376;29;20856;-80
2021/05/11 03:07:25;;;;;;;6.67;4.37;;;13.50;99.90;;;;;;4835603;29;20194;-80
2021/05/11 03:09:51;;;;;;;8.57;5.13;;;13.50;99.90;;;;;;4806836;29;21071;-80
2021/05/11 03:12:17;;;;;;;10.00;4.63;;;13.40;99.90;;;;;;4806554;29;20469;-79
2021/05/11 03:14:42;;;;;;;7.10;4.93;;;13.40;99.90;;;;;;4806152;29;20267;-79
2021/05/11 03:17:08;;;;;;;6.97;4.50;;;13.10;99.90;;;;;;4835594;29;20183;-79
2021/05/11 03:19:34;;;;;;;6.43;4.80;;;12.90;99.90;;;;;;4806487;29;20179;-78
2021/05/11 03:22:00;;;;;;;5.40;4.80;;;13.00;99.90;;;;;;4806639;29;20986;-79
2021/05/11 03:24:25;;;;;;;7.87;4.23;;;13.00;99.90;;;;;;4806153;29;20186;-79
2021/05/11 03:26:51;;;;;;;7.13;4.90;;;13.10;99.90;;;;;;4806370;29;20640;-79
2021/05/11 03:29:17;;;;;;;6.67;5.30;;;13.10;99.90;;;;;;4806261;29;20182;-80
2021/05/11 03:31:43;;;;;;;6.10;4.80;;;13.20;99.90;;;;;;4806248;29;20570;-79
2021/05/11 03:34:08;;;;;;;6.13;5.50;;;13.20;99.90;;;;;;4805976;29;20705;-79
2021/05/11 03:36:34;;;;;;;6.00;4.50;;;13.30;99.90;;;;;;4835161;29;20231;-80
2021/05/11 03:39:04;;;;;;;9.40;5.30;;;13.30;99.90;;;;;;4805753;29;20178;-79
2021/05/11 03:41:35;;;;;;;8.47;6.00;;;13.30;99.90;;;;;;4835094;29;20213;-79
2021/05/11 03:44:25;;;;;;;7.23;5.73;;;13.30;99.90;;;;;;4806102;29;20923;-79
2021/05/11 03:46:47;;;;;;;6.53;5.50;;;13.30;99.90;;;;;;4806152;29;20440;-78
2021/05/11 03:49:12;;;;;;;14.87;6.27;;;13.30;99.90;;;;;;4835257;29;20431;-79
2021/05/11 03:51:39;;;;;;;7.90;7.10;;;13.30;99.90;;;;;;4805829;29;20270;-78
2021/05/11 03:54:06;;;;;;;7.53;5.87;;;13.30;99.90;;;;;;4806107;29;20182;-78
2021/05/11 03:56:32;;;;;;;9.77;5.47;;;13.30;99.90;;;;;;4805779;29;20530;-79
2021/05/11 03:58:58;;;;;;;8.40;6.17;;;13.30;99.90;;;;;;4806144;29;20525;-78
2021/05/11 04:01:24;;;;;;;6.67;5.63;;;13.30;99.90;;;;;;4806011;29;20405;-78
2021/05/11 04:03:50;;;;;;;7.53;5.10;;;13.20;99.90;;;;;;4819853;29;20431;-79
2021/05/11 04:06:16;;;;;;;8.20;4.87;;;13.10;99.90;;;;;;4805458;29;20451;-79
2021/05/11 04:08:46;;;;;;;8.57;5.10;;;13.10;99.90;;;;;;4806164;29;20186;-78
2021/05/11 04:16:26;;;;;;;7.00;4.80;;;13.10;99.90;;;;;;4806034;29;20212;-79
2021/05/11 04:18:53;;;;;;;9.43;5.77;;;13.20;99.90;;;;;;4805953;29;20387;-79
2021/05/11 04:21:20;;;;;;;8.80;5.97;;;13.20;99.90;;;;;;4805816;29;20439;-79
2021/05/11 04:23:48;;;;;;;9.80;5.37;;;13.30;99.90;;;;;;4805634;29;20438;-79
2021/05/11 04:26:14;;;;;;;8.07;5.33;;;13.30;99.90;;;;;;4805433;29;20455;-79
2021/05/11 04:28:41;;;;;;;9.73;5.33;;;13.30;99.90;;;;;;4805794;29;20431;-78
2021/05/11 04:31:07;;;;;;;8.30;6.20;;;13.20;99.90;;;;;;4805705;29;20909;-78
2021/05/11 04:33:34;;;;;;;6.03;5.43;;;13.10;99.90;;;;;;4805637;29;20933;-78
2021/05/11 04:35:59;;;;;;;7.70;4.90;;;13.10;99.90;;;;;;4805239;29;20509;-80
2021/05/11 04:38:25;;;;;;;9.80;4.83;;;13.10;99.90;;;;;;4805744;29;20503;-79
2021/05/11 04:40:51;;;;;;;7.97;4.70;;;13.20;99.90;;;;;;4805604;29;20216;-79
2021/05/11 04:43:17;;;;;;;9.30;5.30;;;13.30;99.90;;;;;;4805602;29;20212;-79
2021/05/11 04:45:43;;;;;;;9.53;5.53;;;13.20;99.90;;;;;;4805094;29;20478;-80
2021/05/11 04:48:10;;;;;;;8.90;4.93;;;13.10;99.90;;;;;;4834389;29;20455;-79
2021/05/11 04:50:35;;;;;;;6.40;4.63;;;13.00;99.90;;;;;;4806169;29;20436;-79
2021/05/11 04:53:01;;;;;;;5.87;4.93;;;13.00;99.90;;;;;;4837845;29;20213;-79
2021/05/11 04:55:27;;;;;;;11.50;5.87;;;13.10;99.90;;;;;;4808410;29;20202;-79
2021/05/11 04:57:53;;;;;;;10.60;5.63;;;13.20;99.90;;;;;;4808609;29;20202;-80
2021/05/11 05:00:19;;;;;;;6.73;4.70;;;13.20;99.90;;;;;;4808608;29;20405;-79
2021/05/11 05:02:47;;;;;;;7.40;5.13;;;13.10;99.90;;;;;;4808808;29;20193;-79
2021/05/11 05:05:14;;;;;;;17.23;5.17;;;13.30;99.90;;;;;;4807478;29;20455;-79
2021/05/11 05:07:40;;;;;;;12.87;6.37;;;13.40;99.90;;;;;;4808947;29;20413;-79
2021/05/11 05:10:07;;;;;;;8.53;5.60;;;13.40;99.90;;;;;;4808692;29;20398;-79
2021/05/11 05:12:33;;;;;;;11.93;5.67;;;13.40;99.90;;;;;;4808645;29;20482;-79
2021/05/11 05:14:59;;;;;;;6.30;5.67;;;13.40;99.90;;;;;;4837380;29;20414;-79
2021/05/11 05:17:25;;;;;;;8.93;5.80;;;13.40;99.90;;;;;;4837796;29;20455;-79
2021/05/11 05:19:50;;;;;;;6.40;5.40;;;13.30;99.90;;;;;;4808542;29;20209;-79
2021/05/11 05:22:17;;;;;;;10.77;5.93;;;13.30;99.90;;;;;;4837745;29;20277;-79
2021/05/11 05:25:09;;;;;;;9.10;5.77;;;13.40;99.90;;;;;;4808189;29;20209;-79
2021/05/11 05:28:06;;;;;;;8.07;6.33;;;13.40;99.90;;;;;;4809431;29;20909;-80
2021/05/11 05:30:23;;;;;;;7.40;6.07;;;13.40;99.90;;;;;;4808982;29;20431;-79
2021/05/11 05:32:48;;;;;;;10.20;6.50;;;13.40;99.90;;;;;;4808327;29;20472;-79
2021/05/11 05:35:14;;;;;;;10.80;7.87;;;13.50;99.90;;;;;;4807858;29;21029;-79
2021/05/11 05:37:40;;;;;;;13.80;7.67;;;13.50;99.90;;;;;;4808227;29;20235;-79
2021/05/11 05:40:09;;;;;;;12.63;7.90;;;13.50;99.90;;;;;;4808146;29;20652;-80
2021/05/11 05:42:34;;;;;;;10.07;7.33;;;13.60;99.90;;;;;;4807935;29;20186;-79
2021/05/11 05:45:00;;;;;;;9.80;8.27;;;13.70;99.90;;;;;;4807754;29;20496;-80
2021/05/11 05:47:26;;;;;;;15.90;7.07;;;13.70;99.90;;;;;;4807903;29;20914;-80
2021/05/11 05:49:59;;;;;;;11.23;8.03;;;13.70;99.90;;;;;;4807938;29;20261;-81
2021/05/11 05:52:34;;;;;;;9.10;8.20;;;13.80;99.90;;;;;;4836862;29;20210;-81
2021/05/11 05:55:03;;;;;;;16.20;10.60;;;13.90;99.90;;;;;;4807501;29;20847;-78
2021/05/11 05:57:29;;;;;;;13.77;9.40;;;13.80;99.90;;;;;;4807793;29;20474;-79
2021/05/11 05:59:54;;;;;;;11.30;8.80;;;13.70;99.90;;;;;;4807852;29;20546;-79
2021/05/11 06:02:23;;;;;;;11.30;10.10;;;13.90;99.90;;;;;;4807356;29;20182;-79
2021/05/11 06:04:49;;;;;;;14.13;9.10;;;13.70;99.90;;;;;;4807312;29;20202;-80
2021/05/11 06:07:15;;;;;;;9.63;8.67;;;13.60;99.90;;;;;;4807575;29;20439;-79
2021/05/11 06:09:41;;;;;;;10.90;8.30;;;13.80;99.90;;;;;;4807575;29;20194;-80
2021/05/11 06:12:12;;;;;;;9.73;8.13;;;13.90;99.90;;;;;;4836592;29;20841;-80
2021/05/11 06:14:48;;;;;;;7.67;6.87;;;13.90;99.90;;;;;;4807034;29;20266;-80
2021/05/11 06:17:17;;;;;;;8.27;6.87;;;14.00;99.90;;;;;;4807555;29;20412;-80
2021/05/11 06:19:47;;;;;;;8.40;5.90;;;14.00;99.90;;;;;;4807645;29;20514;-80
2021/05/11 06:22:15;;;;;;;10.60;5.97;;;13.80;99.90;;;;;;4807553;29;20427;-80
2021/05/11 06:24:41;;;;;;;11.03;6.90;;;13.60;99.90;;;;;;4806939;29;20475;-80
2021/05/11 06:27:08;;;;;;;7.67;6.53;;;13.70;99.90;;;;;;4807369;29;20506;-80
2021/05/11 06:29:37;;;;;;;11.67;5.93;;;13.80;99.90;;;;;;4807279;29;20947;-80
2021/05/11 06:32:03;;;;;;;7.93;6.20;;;13.90;99.90;;;;;;4806956;29;20517;-80
2021/05/11 06:34:30;;;;;;;10.30;7.07;;;13.90;99.90;;;;;;4806515;29;20793;-79
2021/05/11 06:36:56;;;;;;;9.87;6.77;;;13.80;99.90;;;;;;4806999;29;20413;-79
2021/05/11 06:39:21;;;;;;;15.60;7.60;;;13.90;99.90;;;;;;4807047;29;20419;-80
2021/05/11 06:41:50;;;;;;;7.03;6.43;;;13.70;99.90;;;;;;4807033;29;20656;-79
2021/05/11 06:49:50;;;;;;;14.20;7.13;;;14.00;99.90;;;;;;4806941;29;20410;-79
2021/05/11 06:55:00;;;;;;;9.10;6.03;;;14.10;99.90;;;;;;4806467;29;20450;-79
2021/05/11 06:57:27;;;;;;;8.93;5.37;;;14.10;99.90;;;;;;4805299;29;20784;-79
2021/05/11 06:59:53;;;;;;;10.20;6.60;;;14.10;99.90;;;;;;4805430;29;20910;-80
2021/05/11 07:02:19;;;;;;;8.73;6.27;;;14.20;99.90;;;;;;4820665;29;20440;-79
2021/05/11 07:04:51;;;;;;;9.00;6.37;;;14.40;99.90;;;;;;4806334;29;20203;-79
2021/05/11 07:07:17;;;;;;;9.13;6.63;;;14.60;99.90;;;;;;4806874;29;20436;-80
2021/05/11 07:14:34;;;;;;;13.83;7.77;;;14.80;99.90;;;;;;4805784;29;20190;-80
2021/05/11 07:16:59;;;;;;;33.50;22.37;;;14.90;99.90;;;;;;4806604;29;20593;-80
2021/05/11 07:19:25;;;;;;;10.97;8.30;;;14.90;99.90;;;;;;4806483;29;20187;-80
2021/05/11 07:21:51;;;;;;;8.40;6.87;;;15.00;99.90;;;;;;4806079;29;20190;-80
2021/05/11 07:24:18;;;;;;;10.93;6.30;;;15.20;99.90;;;;;;4805971;29;20899;-80
2021/05/11 07:27:00;;;;;;;9.33;6.93;;;15.40;99.90;;;;;;4806306;29;20194;-79
2021/05/11 07:29:52;;;;;;;9.03;5.70;;;15.50;99.90;;;;;;4806153;29;20487;-79
2021/05/11 07:32:13;;;;;;;7.53;5.37;;;15.00;99.90;;;;;;4806196;29;21056;-82
2021/05/11 07:34:42;;;;;;;7.23;6.00;;;14.90;99.90;;;;;;4805925;29;20443;-79
2021/05/11 07:37:08;;;;;;;7.77;5.60;;;15.00;99.90;;;;;;4834509;29;20868;-79
2021/05/11 07:39:33;;;;;;;9.87;4.80;;;15.30;99.90;;;;;;4806183;29;20424;-79
2021/05/11 07:42:00;;;;;;;10.70;5.00;;;15.10;99.90;;;;;;4806232;29;20442;-79
2021/05/11 07:44:26;;;;;;;5.80;4.77;;;15.00;99.90;;;;;;4805797;29;20621;-81
2021/05/11 08:16:33;;;;;;;6.73;3.77;;;15.40;99.90;;;;;;4787840;29;20426;-79
2021/05/11 08:19:12;;;;;;;5.77;2.70;;;15.50;99.90;;;;;;4787972;30;20421;-78
2021/05/11 08:29:50;;;;;;;5.10;3.00;;;16.10;99.90;;;;;;4809414;29;20918;-79
2021/05/11 08:32:16;;;;;;;5.60;3.00;;;16.30;99.90;;;;;;4809269;29;20475;-78
2021/05/11 08:34:41;;;;;;;6.67;2.63;;;16.50;99.90;;;;;;4808915;29;20271;-78
2021/05/11 08:37:09;;;;;;;5.10;3.27;;;16.60;99.90;;;;;;4809282;29;20238;-79
2021/05/11 08:39:35;;;;;;;6.97;3.60;;;16.60;99.90;;;;;;4809160;29;20187;-80
2021/05/11 08:42:00;;;;;;;5.53;2.53;;;16.70;99.90;;;;;;4838226;29;20428;-77
2021/05/11 08:44:26;;;;;;;3.60;3.03;;;16.90;99.90;;;;;;4808717;29;20190;-81
2021/05/11 08:46:51;;;;;;;7.20;2.83;;;16.90;99.90;;;;;;4809051;29;20190;-84
2021/05/11 08:49:17;;;;;;;7.93;2.87;;;16.90;99.90;;;;;;4809014;29;20636;-80
2021/05/11 08:51:56;;;;;;;6.37;2.80;;;17.00;99.90;;;;;;4808780;29;20225;-80
2021/05/11 08:54:34;;;;;;;5.10;2.67;;;17.00;99.90;;;;;;4808633;29;20299;-81
2021/05/11 09:06:04;;;;;;;3.43;2.60;;;17.10;99.90;;;;;;4808570;29;20873;-78
2021/05/11 09:25:25;;;;;;;4.53;2.00;;;18.60;99.90;;;;;;4808114;29;20543;-80
2021/05/11 09:28:07;;;;;;;8.53;2.40;;;18.70;99.90;;;;;;4807233;29;20440;-80
2021/05/11 09:30:57;;;;;;;9.13;2.60;;;18.70;99.90;;;;;;4808054;29;20496;-79
2021/05/11 09:33:56;;;;;;;4.77;2.10;;;19.40;99.90;;;;;;4834554;29;20560;-80
2021/05/11 10:46:51;;;;;;;11.80;4.80;;;17.20;99.90;;;;;;4806639;29;20422;-79
2021/05/11 10:49:29;;;;;;;7.90;4.37;;;17.10;99.90;;;;;;4806061;29;20434;-79
2021/05/11 10:52:14;;;;;;;9.37;5.07;;;17.10;99.90;;;;;;4807093;29;20439;-79
2021/05/11 10:54:46;;;;;;;9.40;4.73;;;17.30;99.90;;;;;;4806375;29;20419;-78
2021/05/11 10:57:59;;;;;;;7.17;4.27;;;17.30;99.90;;;;;;4806893;29;20446;-79
2021/05/11 11:00:33;;;;;;;9.00;4.77;;;17.10;99.90;;;;;;4808741;29;20896;-79
2021/05/11 11:03:20;;;;;;;7.80;3.50;;;17.10;99.90;;;;;;4806675;29;20416;-78
2021/05/11 11:05:54;;;;;;;6.50;4.40;;;17.10;99.90;;;;;;4834394;29;20448;-79
2021/05/11 11:08:26;;;;;;;7.80;4.57;;;16.90;99.90;;;;;;4806497;29;20481;-79
2021/05/11 11:11:00;;;;;;;7.53;4.93;;;17.00;99.90;;;;;;4806387;29;20438;-79
2021/05/11 11:13:28;;;;;;;7.33;5.10;;;16.90;99.90;;;;;;4806312;29;20466;-78
2021/05/11 11:15:59;;;;;;;12.47;5.43;;;16.80;99.90;;;;;;4806277;29;20407;-78
2021/05/11 11:18:24;;;;;;;6.93;5.27;;;16.80;99.90;;;;;;4806758;29;20477;-79
2021/05/11 11:21:20;;;;;;;7.57;5.40;;;16.70;99.90;;;;;;4806573;29;20539;-79
2021/05/11 11:23:49;;;;;;;9.30;5.90;;;16.60;99.90;;;;;;4806599;29;20265;-78
2021/05/11 11:26:27;;;;;;;10.50;6.00;;;16.70;99.90;;;;;;4806065;29;20818;-78
2021/05/11 11:29:09;;;;;;;11.67;6.93;;;16.70;99.90;;;;;;4806414;29;20399;-78
2021/05/11 11:31:40;;;;;;;10.20;6.97;;;16.70;99.90;;;;;;4806310;29;20940;-78
2021/05/11 11:34:32;;;;;;;8.60;6.47;;;16.70;99.90;;;;;;4806167;29;20450;-79
2021/05/11 11:37:12;;;;;;;12.23;7.00;;;16.60;99.90;;;;;;4806254;29;20394;-78
2021/05/11 11:39:49;;;;;;;17.03;6.50;;;16.50;99.90;;;;;;4805244;29;20398;-78
2021/05/11 11:42:24;;;;;;;9.80;5.83;;;16.50;99.90;;;;;;4806358;29;20406;-78
2021/05/11 11:44:59;;;;;;;9.67;5.80;;;16.40;99.90;;;;;;4805850;29;20828;-78
2021/05/11 11:47:26;;;;;;;10.10;4.10;;;16.20;99.90;;;;;;4806092;29;20394;-78
2021/05/11 11:49:55;;;;;;;7.90;4.70;;;16.20;99.90;;;;;;4835211;29;20431;-78
2021/05/11 12:00:26;;;;;;;10.80;6.30;;;16.00;99.90;;;;;;4811221;29;20429;-78
2021/05/11 12:02:53;;;;;;;4.70;4.30;;;15.90;99.90;;;;;;4838900;29;20510;-78
2021/05/11 12:05:20;;;;;;;7.60;5.87;;;15.90;99.90;;;;;;4809236;29;20447;-79
2021/05/11 12:10:50;;;;;;;14.20;7.27;;;16.00;99.90;;;;;;4825719;29;21034;-78
2021/05/11 12:13:27;;;;;;;8.00;5.33;;;16.00;99.90;;;;;;4812372;29;20458;-79
2021/05/11 12:16:16;;;;;;;9.43;6.40;;;15.90;99.90;;;;;;4809289;29;20454;-78
2021/05/11 12:19:06;;;;;;;6.30;5.80;;;15.90;99.90;;;;;;4809674;29;20447;-78
2021/05/11 12:21:34;;;;;;;7.00;6.10;;;15.90;99.90;;;;;;4809461;29;20412;-78
2021/05/11 12:24:10;;;;;;;7.40;6.60;;;15.90;99.90;;;;;;4809296;29;20771;-78
2021/05/11 12:26:38;;;;;;;7.37;5.80;;;16.00;99.90;;;;;;4809231;29;20458;-78
2021/05/11 12:29:12;;;;;;;9.13;6.20;;;16.10;99.90;;;;;;4809422;29;20550;-78
2021/05/11 12:31:49;;;;;;;6.63;5.80;;;16.30;99.90;;;;;;4809222;29;20986;-78
2021/05/11 12:34:21;;;;;;;9.70;7.17;;;16.50;99.90;;;;;;4807899;29;20920;-78
2021/05/11 12:36:51;;;;;;;7.43;5.60;;;16.60;99.90;;;;;;4837320;29;20402;-78
2021/05/11 12:39:40;;;;;;;6.70;5.60;;;16.70;99.90;;;;;;4809282;29;20382;-78
2021/05/11 12:42:22;;;;;;;9.73;5.83;;;16.80;99.90;;;;;;4809331;29;20447;-78
2021/05/11 12:45:04;;;;;;;5.37;4.83;;;16.80;99.90;;;;;;4807562;29;20448;-79
2021/05/11 12:47:48;;;;;;;8.07;5.47;;;16.80;99.90;;;;;;4808942;29;20503;-78
2021/05/11 12:50:33;;;;;;;6.97;5.10;;;16.50;99.90;;;;;;4809070;29;20405;-79
2021/05/11 12:53:46;;;;;;;7.43;5.80;;;16.20;99.90;;;;;;4833664;29;20499;-79
2021/05/11 12:56:37;;;;;;;13.63;6.20;;;16.10;99.90;;;;;;4808685;29;20975;-79
2021/05/11 12:59:14;;;;;;;6.90;5.77;;;15.90;99.90;;;;;;4838028;29;20410;-78
2021/05/11 13:25:56;;;;;;;6.00;5.20;;;16.10;99.90;;;;;;4808225;29;20920;-77
2021/05/11 13:31:03;;;;;;;8.60;4.00;;;16.20;99.90;;;;;;4837002;29;20953;-77
2021/05/11 13:33:32;;;;;;;6.53;4.47;;;16.30;99.90;;;;;;4808406;29;20566;-78
2021/05/11 13:35:58;;;;;;;4.73;4.20;;;16.30;99.90;;;;;;4836098;29;20843;-78
2021/05/11 13:38:24;;;;;;;4.30;3.73;;;16.10;99.90;;;;;;4808283;29;20410;-78
2021/05/11 13:40:50;;;;;;;4.73;3.20;;;16.10;99.90;;;;;;4808357;29;20668;-77
2021/05/11 13:43:16;;;;;;;7.17;4.00;;;16.10;99.90;;;;;;4808068;29;20776;-77
2021/05/11 13:45:42;;;;;;;6.07;3.50;;;16.10;99.90;;;;;;4807725;29;20450;-78
2021/05/11 13:48:51;;;;;;;4.63;3.03;;;15.90;99.90;;;;;;4808000;29;20402;-78
2021/05/11 13:51:09;;;;;;;6.53;3.20;;;15.90;99.90;;;;;;4810179;29;20668;-78
2021/05/11 13:53:37;;;;;;;5.93;3.97;;;16.10;99.90;;;;;;4807972;29;20478;-77
2021/05/11 14:04:01;;;;;;;8.60;5.57;;;16.00;99.90;;;;;;4832767;29;20413;-78
2021/05/11 14:06:27;;;;;;;6.33;4.27;;;15.90;99.90;;;;;;4807256;29;20489;-78
2021/05/11 14:08:53;;;;;;;8.20;3.87;;;15.90;99.90;;;;;;4807612;29;20949;-78
2021/05/11 14:11:18;;;;;;;3.90;3.50;;;15.90;99.90;;;;;;4807540;29;20201;-78
2021/05/11 14:13:44;;;;;;;8.60;4.33;;;15.70;99.90;;;;;;4807601;29;20194;-77
2021/05/11 14:16:10;;;;;;;9.13;5.23;;;15.80;99.90;;;;;;4807181;29;20430;-78
2021/05/11 14:18:35;;;;;;;5.17;3.90;;;15.60;99.90;;;;;;4807586;29;20190;-78
2021/05/11 14:21:01;;;;;;;6.60;3.80;;;15.60;99.90;;;;;;4836492;29;20191;-78
2021/05/11 14:23:27;;;;;;;5.60;3.60;;;15.70;99.90;;;;;;4807129;29;20193;-78
2021/05/11 14:25:53;;;;;;;4.33;3.93;;;15.80;99.90;;;;;;4807060;29;20455;-78
2021/05/11 14:28:19;;;;;;;5.50;3.80;;;15.70;99.90;;;;;;4807310;29;20398;-77
2021/05/11 14:30:44;;;;;;;4.83;3.63;;;15.70;99.90;;;;;;4807173;29;20182;-77
2021/05/11 14:33:10;;;;;;;5.17;3.73;;;15.60;99.90;;;;;;4807164;29;20274;-78
2021/05/11 14:35:36;;;;;;;7.10;4.33;;;15.60;99.90;;;;;;4806918;29;20217;-77
2021/05/11 14:38:01;;;;;;;7.40;4.60;;;15.50;99.90;;;;;;4836306;29;20265;-78
2021/05/11 14:40:27;;;;;;;7.57;5.27;;;15.60;99.90;;;;;;4807234;29;20708;-78
2021/05/11 14:42:53;;;;;;;8.33;5.60;;;15.70;99.90;;;;;;4807037;29;20221;-78
2021/05/11 14:45:20;;;;;;;5.67;4.50;;;15.60;99.90;;;;;;4806806;29;20297;-78
2021/05/11 14:47:46;;;;;;;8.80;5.87;;;15.60;99.90;;;;;;4807070;29;20413;-76
2021/05/11 14:50:17;;;;;;;8.10;5.50;;;15.50;99.90;;;;;;4820828;29;20440;-76
2021/05/11 14:52:44;;;;;;;5.53;5.03;;;15.70;99.90;;;;;;4835881;29;20633;-76
2021/05/11 14:55:13;;;;;;;6.03;4.80;;;15.60;99.90;;;;;;4806434;29;20475;-76
2021/05/11 14:57:39;;;;;;;8.67;5.40;;;15.60;99.90;;;;;;4806666;29;20608;-77
2021/05/11 15:00:06;;;;;;;5.63;4.50;;;15.80;99.90;;;;;;4835876;29;20448;-77
2021/05/11 15:02:32;;;;;;;5.87;5.27;;;16.00;99.90;;;;;;4835704;29;20406;-77
2021/05/11 15:04:57;;;;;;;6.03;5.03;;;16.10;99.90;;;;;;4806295;29;20454;-77
2021/05/11 15:07:23;;;;;;;6.20;4.90;;;16.00;99.90;;;;;;4806628;29;20192;-77
2021/05/11 15:09:49;;;;;;;6.73;4.07;;;16.00;99.90;;;;;;4806637;29;20269;-77
2021/05/11 15:12:14;;;;;;;6.60;3.87;;;16.30;99.90;;;;;;4806578;29;20236;-77
2021/05/11 15:14:40;;;;;;;14.97;4.70;;;16.30;99.90;;;;;;4806091;29;20202;-77
2021/05/11 15:19:56;;;;;;;3.90;3.60;;;16.40;99.90;;;;;;4814016;29;20229;-78
2021/05/11 15:22:22;;;;;;;5.00;3.47;;;16.40;99.90;;;;;;4806261;29;20432;-77
2021/05/11 15:24:49;;;;;;;4.77;2.77;;;16.30;99.90;;;;;;4834908;29;20455;-77
2021/05/11 15:27:16;;;;;;;5.53;3.23;;;16.40;99.90;;;;;;4806614;29;20879;-77
2021/05/11 15:29:42;;;;;;;9.63;3.90;;;16.20;99.90;;;;;;4806607;29;20434;-77
2021/05/11 15:32:49;;;;;;;6.80;3.43;;;16.10;99.90;;;;;;4806391;29;20479;-77
2021/05/11 15:35:17;;;;;;;6.37;4.43;;;16.30;99.90;;;;;;4805357;29;20445;-77
2021/05/11 15:37:43;;;;;;;5.77;4.43;;;16.20;99.90;;;;;;4835647;29;20514;-77
2021/05/11 15:40:14;;;;;;;4.90;4.40;;;16.20;99.90;;;;;;4806442;29;20428;-78
2021/05/11 15:42:40;;;;;;;7.97;4.77;;;16.00;99.90;;;;;;4806310;29;20447;-77
2021/05/11 15:45:09;;;;;;;8.23;4.83;;;16.00;99.90;;;;;;4805877;29;20536;-77
2021/05/11 15:47:37;;;;;;;6.40;4.40;;;15.90;99.90;;;;;;4805823;29;20458;-77
2021/05/11 15:50:04;;;;;;;8.43;4.83;;;15.80;99.90;;;;;;4806130;29;20405;-77
2021/05/11 15:52:29;;;;;;;7.37;5.90;;;15.80;99.90;;;;;;4806213;29;20573;-78
2021/05/11 15:54:55;;;;;;;9.97;5.73;;;15.80;99.90;;;;;;4805646;29;20508;-77
2021/05/11 15:57:21;;;;;;;11.57;6.10;;;15.80;99.90;;;;;;4805867;29;20919;-78
2021/05/11 15:59:46;;;;;;;8.03;6.30;;;15.80;99.90;;;;;;4806038;29;20265;-77
2021/05/11 16:02:12;;;;;;;7.03;6.10;;;15.70;99.90;;;;;;4805940;29;20216;-78
2021/05/11 16:04:37;;;;;;;7.63;5.70;;;15.70;99.90;;;;;;4805665;29;20206;-78
2021/05/11 16:07:03;;;;;;;6.27;5.67;;;15.60;99.90;;;;;;4805803;29;20688;-78
2021/05/11 16:09:29;;;;;;;7.80;6.83;;;15.50;99.90;;;;;;4805898;29;20281;-78
2021/05/11 16:11:55;;;;;;;10.27;6.73;;;15.40;99.90;;;;;;4805739;29;20467;-78
2021/05/11 16:14:21;;;;;;;8.30;6.93;;;15.40;99.90;;;;;;4805641;29;20428;-78
2021/05/11 16:16:46;;;;;;;10.20;7.30;;;15.20;99.90;;;;;;4806170;29;20221;-77
2021/05/11 16:19:12;;;;;;;9.73;6.10;;;15.20;99.90;;;;;;4835162;29;20193;-77
2021/05/11 16:21:38;;;;;;;9.33;6.67;;;15.40;99.90;;;;;;4805904;29;20189;-78
2021/05/11 16:24:04;;;;;;;10.27;7.17;;;15.30;99.90;;;;;;4805801;29;20577;-78
2021/05/11 16:26:30;;;;;;;11.70;8.30;;;15.40;99.90;;;;;;4805558;29;20772;-78
2021/05/11 16:28:56;;;;;;;11.83;7.70;;;15.20;99.90;;;;;;4805864;29;20490;-77
2021/05/11 16:31:22;;;;;;;11.83;8.37;;;15.20;99.90;;;;;;4805684;29;20451;-78
2021/05/11 16:33:49;;;;;;;17.83;8.00;;;14.90;99.90;;;;;;4805721;29;20532;-78
2021/05/11 16:36:15;;;;;;;9.60;7.90;;;14.90;99.90;;;;;;4803909;29;20500;-77
2021/05/11 16:38:41;;;;;;;16.60;8.53;;;14.90;99.90;;;;;;4805648;29;20423;-78
2021/05/11 16:41:07;;;;;;;13.20;8.33;;;15.00;99.90;;;;;;4805683;29;20420;-79
2021/05/11 16:43:33;;;;;;;11.80;9.53;;;14.90;99.90;;;;;;4805408;29;20191;-78
2021/05/11 16:46:05;;;;;;;16.33;9.13;;;14.70;99.90;;;;;;4806548;29;20498;-78
2021/05/11 16:48:33;;;;;;;10.87;9.80;;;14.70;99.90;;;;;;4809157;29;20423;-79
2021/05/11 16:50:59;;;;;;;10.43;8.37;;;14.80;99.90;;;;;;4809095;29;20428;-78
2021/05/11 16:53:25;;;;;;;15.07;10.37;;;14.70;99.90;;;;;;4808793;29;20529;-79
2021/05/11 16:55:50;;;;;;;17.30;9.50;;;14.70;99.90;;;;;;4808527;29;20510;-79
2021/05/11 16:58:16;;;;;;;15.30;10.10;;;14.80;99.90;;;;;;4837968;29;20253;-78
2021/05/11 17:00:43;;;;;;;16.27;9.23;;;14.70;99.90;;;;;;4808681;29;20210;-78
2021/05/11 17:03:09;;;;;;;16.40;8.90;;;14.60;99.90;;;;;;4808751;29;20595;-77
2021/05/11 17:05:35;;;;;;;11.80;8.77;;;14.50;99.90;;;;;;4808195;29;20467;-78
2021/05/11 17:08:04;;;;;;;14.20;8.60;;;14.50;99.90;;;;;;4808381;29;20500;-78